sensor_id;sensor_type;location;lat;lon;timestamp;P1;durP1;ratioP1;P2;durP2;ratioP2
71038;SDS011;58692;43.212;27.908;2023-04-03T00:01:16;24.15;;;13.05;;
71038;SDS011;58692;43.212;27.908;2023-04-03T00:03:42;30.38;;;12.68;;
71038;SDS011;58692;43.212;27.908;2023-04-03T00:06:08;22.02;;;11.90;;
71038;SDS011;58692;43.212;27.908;2023-04-03T00:08:36;20.77;;;12.90;;
71038;SDS011;58692;43.212;27.908;2023-04-03T00:11:02;22.42;;;12.23;;
71038;SDS011;58692;43.212;27.908;2023-04-03T00:13:27;19.73;;;11.23;;
71038;SDS011;58692;43.212;27.908;2023-04-03T00:15:53;17.30;;;10.10;;
71038;SDS011;58692;43.212;27.908;2023-04-03T00:18:19;18.15;;;10.50;;
71038;SDS011;58692;43.212;27.908;2023-04-03T00:20:44;36.03;;;22.97;;
71038;SDS011;58692;43.212;27.908;2023-04-03T00:23:10;70.23;;;46.93;;
71038;SDS011;58692;43.212;27.908;2023-04-03T00:25:36;60.03;;;41.10;;
71038;SDS011;58692;43.212;27.908;2023-04-03T00:28:02;38.58;;;26.45;;
71038;SDS011;58692;43.212;27.908;2023-04-03T00:30:28;30.30;;;19.45;;
71038;SDS011;58692;43.212;27.908;2023-04-03T00:32:54;23.97;;;15.03;;
71038;SDS011;58692;43.212;27.908;2023-04-03T00:35:20;23.80;;;15.52;;
71038;SDS011;58692;43.212;27.908;2023-04-03T00:37:47;18.90;;;10.37;;
71038;SDS011;58692;43.212;27.908;2023-04-03T00:40:13;27.30;;;13.02;;
71038;SDS011;58692;43.212;27.908;2023-04-03T00:42:41;59.58;;;23.13;;
71038;SDS011;58692;43.212;27.908;2023-04-03T00:47:57;63.35;;;20.88;;
71038;SDS011;58692;43.212;27.908;2023-04-03T00:50:25;31.10;;;15.50;;
71038;SDS011;58692;43.212;27.908;2023-04-03T00:52:52;25.75;;;16.80;;
71038;SDS011;58692;43.212;27.908;2023-04-03T00:55:18;59.30;;;33.47;;
71038;SDS011;58692;43.212;27.908;2023-04-03T00:57:45;76.82;;;41.08;;
71038;SDS011;58692;43.212;27.908;2023-04-03T01:00:12;79.50;;;39.05;;
71038;SDS011;58692;43.212;27.908;2023-04-03T01:02:41;46.20;;;24.20;;
71038;SDS011;58692;43.212;27.908;2023-04-03T01:05:07;26.48;;;18.63;;
71038;SDS011;58692;43.212;27.908;2023-04-03T01:07:33;21.45;;;14.85;;
71038;SDS011;58692;43.212;27.908;2023-04-03T01:10:01;20.13;;;14.37;;
71038;SDS011;58692;43.212;27.908;2023-04-03T01:12:33;19.15;;;13.07;;
71038;SDS011;58692;43.212;27.908;2023-04-03T01:15:04;18.50;;;12.27;;
71038;SDS011;58692;43.212;27.908;2023-04-03T01:17:38;19.38;;;12.23;;
71038;SDS011;58692;43.212;27.908;2023-04-03T01:20:16;20.30;;;11.75;;
71038;SDS011;58692;43.212;27.908;2023-04-03T01:25:32;18.70;;;10.00;;
71038;SDS011;58692;43.212;27.908;2023-04-03T01:27:59;18.23;;;9.73;;
71038;SDS011;58692;43.212;27.908;2023-04-03T01:30:28;14.97;;;9.30;;
71038;SDS011;58692;43.212;27.908;2023-04-03T01:32:57;18.60;;;9.60;;
71038;SDS011;58692;43.212;27.908;2023-04-03T01:35:23;17.42;;;9.10;;
71038;SDS011;58692;43.212;27.908;2023-04-03T01:37:49;14.13;;;7.70;;
71038;SDS011;58692;43.212;27.908;2023-04-03T01:40:14;16.77;;;7.80;;
71038;SDS011;58692;43.212;27.908;2023-04-03T01:42:40;16.50;;;7.93;;
71038;SDS011;58692;43.212;27.908;2023-04-03T01:45:05;13.83;;;7.30;;
71038;SDS011;58692;43.212;27.908;2023-04-03T01:47:31;13.27;;;7.32;;
71038;SDS011;58692;43.212;27.908;2023-04-03T01:49:56;17.03;;;7.57;;
71038;SDS011;58692;43.212;27.908;2023-04-03T01:52:22;18.00;;;7.60;;
71038;SDS011;58692;43.212;27.908;2023-04-03T01:54:48;17.47;;;8.70;;
71038;SDS011;58692;43.212;27.908;2023-04-03T01:57:13;14.67;;;7.80;;
71038;SDS011;58692;43.212;27.908;2023-04-03T01:59:40;18.52;;;8.68;;
71038;SDS011;58692;43.212;27.908;2023-04-03T02:02:06;21.05;;;8.65;;
71038;SDS011;58692;43.212;27.908;2023-04-03T02:04:32;25.33;;;10.60;;
71038;SDS011;58692;43.212;27.908;2023-04-03T02:06:57;27.07;;;11.43;;
71038;SDS011;58692;43.212;27.908;2023-04-03T02:09:23;30.42;;;13.07;;
71038;SDS011;58692;43.212;27.908;2023-04-03T02:11:48;32.10;;;16.33;;
71038;SDS011;58692;43.212;27.908;2023-04-03T02:14:14;40.37;;;19.57;;
71038;SDS011;58692;43.212;27.908;2023-04-03T02:16:39;45.03;;;25.15;;
71038;SDS011;58692;43.212;27.908;2023-04-03T02:19:06;38.70;;;24.03;;
71038;SDS011;58692;43.212;27.908;2023-04-03T02:21:31;40.72;;;23.17;;
71038;SDS011;58692;43.212;27.908;2023-04-03T02:23:57;36.50;;;21.30;;
71038;SDS011;58692;43.212;27.908;2023-04-03T02:26:22;33.88;;;20.13;;
71038;SDS011;58692;43.212;27.908;2023-04-03T02:28:48;32.60;;;19.57;;
71038;SDS011;58692;43.212;27.908;2023-04-03T02:31:14;33.58;;;19.70;;
71038;SDS011;58692;43.212;27.908;2023-04-03T02:33:39;33.73;;;18.23;;
71038;SDS011;58692;43.212;27.908;2023-04-03T02:36:06;35.88;;;19.10;;
71038;SDS011;58692;43.212;27.908;2023-04-03T02:38:32;38.47;;;19.33;;
71038;SDS011;58692;43.212;27.908;2023-04-03T02:41:02;32.85;;;19.70;;
71038;SDS011;58692;43.212;27.908;2023-04-03T02:43:29;33.60;;;19.33;;
71038;SDS011;58692;43.212;27.908;2023-04-03T02:45:55;35.40;;;20.33;;
71038;SDS011;58692;43.212;27.908;2023-04-03T02:48:20;37.83;;;20.77;;
71038;SDS011;58692;43.212;27.908;2023-04-03T02:50:46;37.53;;;21.55;;
71038;SDS011;58692;43.212;27.908;2023-04-03T02:53:12;40.60;;;22.73;;
71038;SDS011;58692;43.212;27.908;2023-04-03T02:55:37;35.63;;;21.00;;
71038;SDS011;58692;43.212;27.908;2023-04-03T02:58:03;39.03;;;22.60;;
71038;SDS011;58692;43.212;27.908;2023-04-03T03:00:28;38.87;;;21.53;;
71038;SDS011;58692;43.212;27.908;2023-04-03T03:02:54;36.40;;;20.95;;
71038;SDS011;58692;43.212;27.908;2023-04-03T03:05:20;36.13;;;21.73;;
71038;SDS011;58692;43.212;27.908;2023-04-03T03:07:46;35.70;;;21.10;;
71038;SDS011;58692;43.212;27.908;2023-04-03T03:10:11;35.28;;;21.58;;
71038;SDS011;58692;43.212;27.908;2023-04-03T03:12:37;40.57;;;21.87;;
71038;SDS011;58692;43.212;27.908;2023-04-03T03:15:02;41.40;;;24.60;;
71038;SDS011;58692;43.212;27.908;2023-04-03T03:17:28;47.40;;;27.20;;
71038;SDS011;58692;43.212;27.908;2023-04-03T03:19:54;47.37;;;26.00;;
71038;SDS011;58692;43.212;27.908;2023-04-03T03:22:19;38.80;;;22.10;;
71038;SDS011;58692;43.212;27.908;2023-04-03T03:24:45;41.05;;;21.80;;
71038;SDS011;58692;43.212;27.908;2023-04-03T03:27:10;32.83;;;18.33;;
71038;SDS011;58692;43.212;27.908;2023-04-03T03:29:37;35.00;;;18.08;;
71038;SDS011;58692;43.212;27.908;2023-04-03T03:32:02;29.00;;;16.73;;
71038;SDS011;58692;43.212;27.908;2023-04-03T03:34:28;36.35;;;17.58;;
71038;SDS011;58692;43.212;27.908;2023-04-03T03:36:54;30.73;;;14.70;;
71038;SDS011;58692;43.212;27.908;2023-04-03T03:39:20;29.83;;;15.35;;
71038;SDS011;58692;43.212;27.908;2023-04-03T03:41:46;33.85;;;16.63;;
71038;SDS011;58692;43.212;27.908;2023-04-03T03:44:11;29.30;;;16.67;;
71038;SDS011;58692;43.212;27.908;2023-04-03T03:46:37;29.13;;;16.00;;
71038;SDS011;58692;43.212;27.908;2023-04-03T03:49:02;30.30;;;15.40;;
71038;SDS011;58692;43.212;27.908;2023-04-03T03:51:28;35.20;;;16.77;;
71038;SDS011;58692;43.212;27.908;2023-04-03T03:53:53;27.90;;;16.23;;
71038;SDS011;58692;43.212;27.908;2023-04-03T03:56:20;31.02;;;16.05;;
71038;SDS011;58692;43.212;27.908;2023-04-03T03:58:45;31.08;;;16.65;;
71038;SDS011;58692;43.212;27.908;2023-04-03T04:01:11;33.10;;;17.20;;
71038;SDS011;58692;43.212;27.908;2023-04-03T04:03:36;35.08;;;18.40;;
71038;SDS011;58692;43.212;27.908;2023-04-03T04:06:02;34.27;;;19.03;;
71038;SDS011;58692;43.212;27.908;2023-04-03T04:08:28;31.37;;;18.13;;
71038;SDS011;58692;43.212;27.908;2023-04-03T04:10:53;33.33;;;17.88;;
71038;SDS011;58692;43.212;27.908;2023-04-03T04:13:19;38.70;;;18.43;;
71038;SDS011;58692;43.212;27.908;2023-04-03T04:15:44;29.55;;;17.35;;
71038;SDS011;58692;43.212;27.908;2023-04-03T04:18:10;28.57;;;16.63;;
71038;SDS011;58692;43.212;27.908;2023-04-03T04:20:36;30.23;;;15.27;;
71038;SDS011;58692;43.212;27.908;2023-04-03T04:23:01;30.37;;;15.40;;
71038;SDS011;58692;43.212;27.908;2023-04-03T04:25:26;29.17;;;14.63;;
71038;SDS011;58692;43.212;27.908;2023-04-03T04:27:52;30.10;;;13.93;;
71038;SDS011;58692;43.212;27.908;2023-04-03T04:30:17;22.10;;;12.98;;
71038;SDS011;58692;43.212;27.908;2023-04-03T04:32:43;24.77;;;12.03;;
71038;SDS011;58692;43.212;27.908;2023-04-03T04:35:09;23.60;;;12.00;;
71038;SDS011;58692;43.212;27.908;2023-04-03T04:37:34;22.88;;;11.75;;
71038;SDS011;58692;43.212;27.908;2023-04-03T04:40:00;19.97;;;10.60;;
71038;SDS011;58692;43.212;27.908;2023-04-03T04:42:25;18.98;;;9.20;;
71038;SDS011;58692;43.212;27.908;2023-04-03T04:44:51;18.97;;;9.07;;
71038;SDS011;58692;43.212;27.908;2023-04-03T04:47:16;20.30;;;9.00;;
71038;SDS011;58692;43.212;27.908;2023-04-03T04:49:42;20.43;;;9.33;;
71038;SDS011;58692;43.212;27.908;2023-04-03T04:52:07;21.50;;;7.80;;
71038;SDS011;58692;43.212;27.908;2023-04-03T04:54:33;14.33;;;7.50;;
71038;SDS011;58692;43.212;27.908;2023-04-03T04:56:58;13.80;;;6.72;;
71038;SDS011;58692;43.212;27.908;2023-04-03T04:59:24;11.47;;;6.30;;
71038;SDS011;58692;43.212;27.908;2023-04-03T05:01:50;15.32;;;7.60;;
71038;SDS011;58692;43.212;27.908;2023-04-03T05:04:15;15.13;;;7.10;;
71038;SDS011;58692;43.212;27.908;2023-04-03T05:06:41;16.42;;;7.40;;
71038;SDS011;58692;43.212;27.908;2023-04-03T05:09:07;17.47;;;9.20;;
71038;SDS011;58692;43.212;27.908;2023-04-03T05:11:32;28.77;;;14.25;;
71038;SDS011;58692;43.212;27.908;2023-04-03T05:13:58;37.13;;;19.20;;
71038;SDS011;58692;43.212;27.908;2023-04-03T05:16:23;35.50;;;19.77;;
71038;SDS011;58692;43.212;27.908;2023-04-03T05:18:50;28.58;;;16.83;;
71038;SDS011;58692;43.212;27.908;2023-04-03T05:21:16;34.07;;;18.77;;
71038;SDS011;58692;43.212;27.908;2023-04-03T05:23:43;39.17;;;20.40;;
71038;SDS011;58692;43.212;27.908;2023-04-03T05:26:09;28.83;;;15.40;;
71038;SDS011;58692;43.212;27.908;2023-04-03T05:28:34;23.97;;;12.40;;
71038;SDS011;58692;43.212;27.908;2023-04-03T05:31:00;25.83;;;12.90;;
71038;SDS011;58692;43.212;27.908;2023-04-03T05:33:26;24.93;;;11.57;;
71038;SDS011;58692;43.212;27.908;2023-04-03T05:35:52;20.53;;;11.10;;
71038;SDS011;58692;43.212;27.908;2023-04-03T05:38:18;21.27;;;11.23;;
71038;SDS011;58692;43.212;27.908;2023-04-03T05:40:43;22.55;;;11.43;;
71038;SDS011;58692;43.212;27.908;2023-04-03T05:43:09;22.90;;;10.10;;
71038;SDS011;58692;43.212;27.908;2023-04-03T05:45:35;19.23;;;10.15;;
71038;SDS011;58692;43.212;27.908;2023-04-03T05:48:01;19.43;;;9.73;;
71038;SDS011;58692;43.212;27.908;2023-04-03T05:50:27;22.43;;;9.70;;
71038;SDS011;58692;43.212;27.908;2023-04-03T05:52:54;14.43;;;8.32;;
71038;SDS011;58692;43.212;27.908;2023-04-03T05:55:23;14.55;;;6.93;;
71038;SDS011;58692;43.212;27.908;2023-04-03T05:57:48;12.13;;;6.30;;
71038;SDS011;58692;43.212;27.908;2023-04-03T06:00:15;18.42;;;8.82;;
71038;SDS011;58692;43.212;27.908;2023-04-03T06:02:41;12.07;;;6.93;;
71038;SDS011;58692;43.212;27.908;2023-04-03T06:05:07;19.52;;;8.65;;
71038;SDS011;58692;43.212;27.908;2023-04-03T06:07:34;14.65;;;7.85;;
71038;SDS011;58692;43.212;27.908;2023-04-03T06:10:00;20.47;;;9.43;;
71038;SDS011;58692;43.212;27.908;2023-04-03T06:12:26;21.05;;;10.10;;
71038;SDS011;58692;43.212;27.908;2023-04-03T06:14:53;13.63;;;6.28;;
71038;SDS011;58692;43.212;27.908;2023-04-03T06:17:19;11.43;;;5.30;;
71038;SDS011;58692;43.212;27.908;2023-04-03T06:19:45;9.82;;;3.70;;
71038;SDS011;58692;43.212;27.908;2023-04-03T06:22:10;9.87;;;3.47;;
71038;SDS011;58692;43.212;27.908;2023-04-03T06:24:36;7.82;;;3.00;;
71038;SDS011;58692;43.212;27.908;2023-04-03T06:27:03;8.88;;;3.38;;
71038;SDS011;58692;43.212;27.908;2023-04-03T06:29:28;7.00;;;3.00;;
71038;SDS011;58692;43.212;27.908;2023-04-03T06:31:54;6.57;;;2.60;;
71038;SDS011;58692;43.212;27.908;2023-04-03T06:34:20;9.80;;;3.10;;
71038;SDS011;58692;43.212;27.908;2023-04-03T06:36:46;5.95;;;2.92;;
71038;SDS011;58692;43.212;27.908;2023-04-03T06:39:13;6.57;;;3.47;;
71038;SDS011;58692;43.212;27.908;2023-04-03T06:41:41;11.90;;;5.30;;
71038;SDS011;58692;43.212;27.908;2023-04-03T06:44:06;8.17;;;4.20;;
71038;SDS011;58692;43.212;27.908;2023-04-03T06:46:36;9.55;;;5.15;;
71038;SDS011;58692;43.212;27.908;2023-04-03T06:49:02;11.07;;;4.25;;
71038;SDS011;58692;43.212;27.908;2023-04-03T06:51:29;12.40;;;5.80;;
71038;SDS011;58692;43.212;27.908;2023-04-03T06:53:56;8.75;;;4.47;;
71038;SDS011;58692;43.212;27.908;2023-04-03T06:56:23;8.70;;;4.37;;
71038;SDS011;58692;43.212;27.908;2023-04-03T06:58:50;10.45;;;4.68;;
71038;SDS011;58692;43.212;27.908;2023-04-03T07:01:16;11.38;;;4.65;;
71038;SDS011;58692;43.212;27.908;2023-04-03T07:03:44;5.93;;;3.08;;
71038;SDS011;58692;43.212;27.908;2023-04-03T07:06:12;6.13;;;2.25;;
71038;SDS011;58692;43.212;27.908;2023-04-03T07:08:38;6.87;;;2.50;;
71038;SDS011;58692;43.212;27.908;2023-04-03T07:11:04;5.63;;;2.55;;
71038;SDS011;58692;43.212;27.908;2023-04-03T07:13:30;5.18;;;2.40;;
71038;SDS011;58692;43.212;27.908;2023-04-03T07:15:56;6.30;;;2.85;;
71038;SDS011;58692;43.212;27.908;2023-04-03T07:18:22;4.93;;;2.60;;
71038;SDS011;58692;43.212;27.908;2023-04-03T07:20:48;7.00;;;2.80;;
71038;SDS011;58692;43.212;27.908;2023-04-03T07:23:13;3.53;;;2.07;;
71038;SDS011;58692;43.212;27.908;2023-04-03T07:25:43;5.75;;;2.60;;
71038;SDS011;58692;43.212;27.908;2023-04-03T07:28:10;6.93;;;2.40;;
71038;SDS011;58692;43.212;27.908;2023-04-03T07:30:41;7.80;;;2.70;;
71038;SDS011;58692;43.212;27.908;2023-04-03T07:33:08;8.18;;;2.80;;
71038;SDS011;58692;43.212;27.908;2023-04-03T07:35:33;9.90;;;2.70;;
71038;SDS011;58692;43.212;27.908;2023-04-03T07:37:59;7.80;;;2.70;;
71038;SDS011;58692;43.212;27.908;2023-04-03T07:40:25;6.33;;;2.60;;
71038;SDS011;58692;43.212;27.908;2023-04-03T07:42:50;6.68;;;2.65;;
71038;SDS011;58692;43.212;27.908;2023-04-03T07:45:16;5.43;;;2.00;;
71038;SDS011;58692;43.212;27.908;2023-04-03T07:47:42;4.95;;;2.10;;
71038;SDS011;58692;43.212;27.908;2023-04-03T07:50:07;5.03;;;2.37;;
71038;SDS011;58692;43.212;27.908;2023-04-03T07:52:33;4.90;;;2.42;;
71038;SDS011;58692;43.212;27.908;2023-04-03T07:54:59;5.33;;;2.60;;
71038;SDS011;58692;43.212;27.908;2023-04-03T07:57:24;4.97;;;2.72;;
71038;SDS011;58692;43.212;27.908;2023-04-03T07:59:50;9.73;;;2.80;;
71038;SDS011;58692;43.212;27.908;2023-04-03T08:02:15;6.67;;;3.80;;
71038;SDS011;58692;43.212;27.908;2023-04-03T08:04:41;8.85;;;3.95;;
71038;SDS011;58692;43.212;27.908;2023-04-03T08:07:07;7.53;;;3.40;;
71038;SDS011;58692;43.212;27.908;2023-04-03T08:09:32;8.18;;;4.05;;
71038;SDS011;58692;43.212;27.908;2023-04-03T08:11:58;8.97;;;3.77;;
71038;SDS011;58692;43.212;27.908;2023-04-03T08:14:23;5.83;;;2.90;;
71038;SDS011;58692;43.212;27.908;2023-04-03T08:16:52;7.10;;;3.40;;
71038;SDS011;58692;43.212;27.908;2023-04-03T08:19:17;6.55;;;3.50;;
71038;SDS011;58692;43.212;27.908;2023-04-03T08:21:43;7.10;;;3.40;;
71038;SDS011;58692;43.212;27.908;2023-04-03T08:24:10;8.10;;;3.30;;
71038;SDS011;58692;43.212;27.908;2023-04-03T08:26:36;7.30;;;3.60;;
71038;SDS011;58692;43.212;27.908;2023-04-03T08:29:02;9.23;;;3.80;;
71038;SDS011;58692;43.212;27.908;2023-04-03T08:31:28;8.38;;;3.92;;
71038;SDS011;58692;43.212;27.908;2023-04-03T08:33:56;8.45;;;3.70;;
71038;SDS011;58692;43.212;27.908;2023-04-03T08:36:23;8.90;;;3.80;;
71038;SDS011;58692;43.212;27.908;2023-04-03T08:38:52;7.28;;;3.97;;
71038;SDS011;58692;43.212;27.908;2023-04-03T08:44:04;7.40;;;4.20;;
71038;SDS011;58692;43.212;27.908;2023-04-03T08:49:42;10.87;;;4.53;;
71038;SDS011;58692;43.212;27.908;2023-04-03T08:52:14;9.57;;;4.60;;
71038;SDS011;58692;43.212;27.908;2023-04-03T08:54:48;9.18;;;4.47;;
71038;SDS011;58692;43.212;27.908;2023-04-03T08:57:15;8.60;;;4.30;;
71038;SDS011;58692;43.212;27.908;2023-04-03T08:59:42;7.72;;;4.43;;
71038;SDS011;58692;43.212;27.908;2023-04-03T09:02:17;8.53;;;4.40;;
71038;SDS011;58692;43.212;27.908;2023-04-03T09:04:50;9.57;;;4.60;;
71038;SDS011;58692;43.212;27.908;2023-04-03T09:07:18;8.67;;;4.70;;
71038;SDS011;58692;43.212;27.908;2023-04-03T09:09:59;8.73;;;4.35;;
71038;SDS011;58692;43.212;27.908;2023-04-03T09:12:29;9.35;;;5.13;;
71038;SDS011;58692;43.212;27.908;2023-04-03T09:22:54;8.00;;;4.50;;
71038;SDS011;58692;43.212;27.908;2023-04-03T09:25:22;8.67;;;4.60;;
71038;SDS011;58692;43.212;27.908;2023-04-03T09:27:50;9.38;;;5.07;;
71038;SDS011;58692;43.212;27.908;2023-04-03T09:30:19;9.02;;;4.90;;
71038;SDS011;58692;43.212;27.908;2023-04-03T09:32:47;8.60;;;5.18;;
71038;SDS011;58692;43.212;27.908;2023-04-03T09:37:59;9.47;;;5.10;;
71038;SDS011;58692;43.212;27.908;2023-04-03T09:43:21;8.88;;;4.80;;
71038;SDS011;58692;43.212;27.908;2023-04-03T09:45:51;9.02;;;5.20;;
71038;SDS011;58692;43.212;27.908;2023-04-03T09:48:18;10.48;;;4.80;;
71038;SDS011;58692;43.212;27.908;2023-04-03T09:50:54;10.70;;;5.23;;
71038;SDS011;58692;43.212;27.908;2023-04-03T09:53:26;9.82;;;5.53;;
71038;SDS011;58692;43.212;27.908;2023-04-03T09:55:55;12.18;;;5.20;;
71038;SDS011;58692;43.212;27.908;2023-04-03T09:58:29;11.82;;;5.50;;
71038;SDS011;58692;43.212;27.908;2023-04-03T10:01:02;11.07;;;5.43;;
71038;SDS011;58692;43.212;27.908;2023-04-03T10:03:36;9.77;;;5.67;;
71038;SDS011;58692;43.212;27.908;2023-04-03T10:06:04;9.55;;;5.45;;
71038;SDS011;58692;43.212;27.908;2023-04-03T10:11:57;9.32;;;4.93;;
71038;SDS011;58692;43.212;27.908;2023-04-03T10:14:25;11.05;;;5.00;;
71038;SDS011;58692;43.212;27.908;2023-04-03T10:16:53;8.70;;;4.73;;
71038;SDS011;58692;43.212;27.908;2023-04-03T10:25:20;10.52;;;5.25;;
71038;SDS011;58692;43.212;27.908;2023-04-03T10:44:26;8.63;;;3.90;;
71038;SDS011;58692;43.212;27.908;2023-04-03T10:47:11;7.53;;;3.60;;
71038;SDS011;58692;43.212;27.908;2023-04-03T10:52:20;8.95;;;4.00;;
71038;SDS011;58692;43.212;27.908;2023-04-03T10:57:33;6.83;;;3.40;;
71038;SDS011;58692;43.212;27.908;2023-04-03T10:59:59;8.48;;;3.67;;
71038;SDS011;58692;43.212;27.908;2023-04-03T11:05:04;7.53;;;3.28;;
71038;SDS011;58692;43.212;27.908;2023-04-03T11:07:43;7.50;;;3.35;;
71038;SDS011;58692;43.212;27.908;2023-04-03T11:10:20;6.67;;;3.00;;
71038;SDS011;58692;43.212;27.908;2023-04-03T11:12:56;8.70;;;3.28;;
71038;SDS011;58692;43.212;27.908;2023-04-03T11:15:27;9.10;;;3.42;;
71038;SDS011;58692;43.212;27.908;2023-04-03T11:17:58;6.80;;;2.97;;
71038;SDS011;58692;43.212;27.908;2023-04-03T11:20:29;8.30;;;3.47;;
71038;SDS011;58692;43.212;27.908;2023-04-03T11:23:03;7.60;;;3.73;;
71038;SDS011;58692;43.212;27.908;2023-04-03T11:25:33;7.53;;;3.45;;
71038;SDS011;58692;43.212;27.908;2023-04-03T11:28:03;9.32;;;3.80;;
71038;SDS011;58692;43.212;27.908;2023-04-03T11:30:32;9.23;;;3.47;;
71038;SDS011;58692;43.212;27.908;2023-04-03T11:35:49;9.43;;;3.93;;
71038;SDS011;58692;43.212;27.908;2023-04-03T11:38:21;8.30;;;4.18;;
71038;SDS011;58692;43.212;27.908;2023-04-03T11:40:51;8.10;;;3.55;;
71038;SDS011;58692;43.212;27.908;2023-04-03T11:48:41;8.30;;;3.57;;
71038;SDS011;58692;43.212;27.908;2023-04-03T11:51:01;9.10;;;3.75;;
71038;SDS011;58692;43.212;27.908;2023-04-03T11:53:42;8.30;;;3.83;;
71038;SDS011;58692;43.212;27.908;2023-04-03T11:59:24;8.13;;;3.63;;
71038;SDS011;58692;43.212;27.908;2023-04-03T12:04:24;8.73;;;4.15;;
71038;SDS011;58692;43.212;27.908;2023-04-03T12:06:54;9.75;;;4.07;;
71038;SDS011;58692;43.212;27.908;2023-04-03T12:11:52;11.07;;;4.30;;
71038;SDS011;58692;43.212;27.908;2023-04-03T12:14:21;8.87;;;4.47;;
71038;SDS011;58692;43.212;27.908;2023-04-03T12:16:50;8.68;;;4.15;;
71038;SDS011;58692;43.212;27.908;2023-04-03T12:19:27;8.65;;;4.22;;
71038;SDS011;58692;43.212;27.908;2023-04-03T12:24:24;12.50;;;4.75;;
71038;SDS011;58692;43.212;27.908;2023-04-03T12:32:17;12.00;;;5.32;;
71038;SDS011;58692;43.212;27.908;2023-04-03T12:37:38;12.48;;;5.55;;
71038;SDS011;58692;43.212;27.908;2023-04-03T12:48:29;11.63;;;4.93;;
71038;SDS011;58692;43.212;27.908;2023-04-03T12:50:56;9.27;;;4.30;;
71038;SDS011;58692;43.212;27.908;2023-04-03T12:53:24;12.30;;;5.43;;
71038;SDS011;58692;43.212;27.908;2023-04-03T12:55:54;11.20;;;4.45;;
71038;SDS011;58692;43.212;27.908;2023-04-03T12:58:23;8.65;;;4.15;;
71038;SDS011;58692;43.212;27.908;2023-04-03T13:03:33;8.63;;;4.07;;
71038;SDS011;58692;43.212;27.908;2023-04-03T13:06:01;8.80;;;4.30;;
71038;SDS011;58692;43.212;27.908;2023-04-03T13:08:28;10.48;;;4.50;;
71038;SDS011;58692;43.212;27.908;2023-04-03T13:13:20;9.27;;;4.40;;
71038;SDS011;58692;43.212;27.908;2023-04-03T13:15:48;10.15;;;4.75;;
71038;SDS011;58692;43.212;27.908;2023-04-03T13:20:59;10.07;;;4.55;;
71038;SDS011;58692;43.212;27.908;2023-04-03T13:23:28;10.53;;;4.47;;
71038;SDS011;58692;43.212;27.908;2023-04-03T13:25:56;10.55;;;4.80;;
71038;SDS011;58692;43.212;27.908;2023-04-03T13:28:26;10.00;;;4.93;;
71038;SDS011;58692;43.212;27.908;2023-04-03T13:33:54;10.80;;;4.65;;
71038;SDS011;58692;43.212;27.908;2023-04-03T13:36:24;10.23;;;4.50;;
71038;SDS011;58692;43.212;27.908;2023-04-03T13:38:58;10.85;;;5.03;;
71038;SDS011;58692;43.212;27.908;2023-04-03T13:41:31;11.18;;;4.95;;
71038;SDS011;58692;43.212;27.908;2023-04-03T13:46:41;9.88;;;4.60;;
71038;SDS011;58692;43.212;27.908;2023-04-03T13:52:02;13.02;;;5.05;;
71038;SDS011;58692;43.212;27.908;2023-04-03T13:54:47;9.57;;;5.03;;
71038;SDS011;58692;43.212;27.908;2023-04-03T13:57:17;11.90;;;4.32;;
71038;SDS011;58692;43.212;27.908;2023-04-03T13:59:43;9.73;;;4.40;;
71038;SDS011;58692;43.212;27.908;2023-04-03T14:02:15;11.60;;;5.18;;
71038;SDS011;58692;43.212;27.908;2023-04-03T14:04:48;10.80;;;4.40;;
71038;SDS011;58692;43.212;27.908;2023-04-03T14:07:15;10.80;;;4.63;;
71038;SDS011;58692;43.212;27.908;2023-04-03T14:09:41;9.07;;;3.90;;
71038;SDS011;58692;43.212;27.908;2023-04-03T14:12:08;11.35;;;5.05;;
71038;SDS011;58692;43.212;27.908;2023-04-03T14:14:41;10.73;;;4.65;;
71038;SDS011;58692;43.212;27.908;2023-04-03T14:17:14;11.02;;;4.63;;
71038;SDS011;58692;43.212;27.908;2023-04-03T14:19:42;9.97;;;4.63;;
71038;SDS011;58692;43.212;27.908;2023-04-03T14:22:16;12.30;;;4.68;;
71038;SDS011;58692;43.212;27.908;2023-04-03T14:24:42;10.43;;;4.70;;
71038;SDS011;58692;43.212;27.908;2023-04-03T14:27:14;10.82;;;5.10;;
71038;SDS011;58692;43.212;27.908;2023-04-03T14:29:43;12.33;;;5.07;;
71038;SDS011;58692;43.212;27.908;2023-04-03T14:32:11;13.98;;;4.93;;
71038;SDS011;58692;43.212;27.908;2023-04-03T14:34:39;10.63;;;4.75;;
71038;SDS011;58692;43.212;27.908;2023-04-03T14:37:09;14.00;;;5.85;;
71038;SDS011;58692;43.212;27.908;2023-04-03T14:39:39;13.43;;;5.77;;
71038;SDS011;58692;43.212;27.908;2023-04-03T14:42:05;13.52;;;6.03;;
71038;SDS011;58692;43.212;27.908;2023-04-03T14:44:31;11.73;;;5.50;;
71038;SDS011;58692;43.212;27.908;2023-04-03T14:46:57;11.73;;;4.57;;
71038;SDS011;58692;43.212;27.908;2023-04-03T14:49:25;12.45;;;5.00;;
71038;SDS011;58692;43.212;27.908;2023-04-03T14:51:54;15.50;;;5.35;;
71038;SDS011;58692;43.212;27.908;2023-04-03T14:54:22;10.20;;;4.40;;
71038;SDS011;58692;43.212;27.908;2023-04-03T14:56:53;12.23;;;5.18;;
71038;SDS011;58692;43.212;27.908;2023-04-03T14:59:20;11.43;;;4.78;;
71038;SDS011;58692;43.212;27.908;2023-04-03T15:01:46;10.55;;;4.85;;
71038;SDS011;58692;43.212;27.908;2023-04-03T15:04:13;12.65;;;5.65;;
71038;SDS011;58692;43.212;27.908;2023-04-03T15:06:40;12.23;;;5.03;;
71038;SDS011;58692;43.212;27.908;2023-04-03T15:09:10;11.38;;;4.60;;
71038;SDS011;58692;43.212;27.908;2023-04-03T15:11:49;12.25;;;5.10;;
71038;SDS011;58692;43.212;27.908;2023-04-03T15:14:16;10.77;;;4.57;;
71038;SDS011;58692;43.212;27.908;2023-04-03T15:16:41;9.33;;;4.37;;
71038;SDS011;58692;43.212;27.908;2023-04-03T15:19:07;12.35;;;5.18;;
71038;SDS011;58692;43.212;27.908;2023-04-03T15:21:32;9.50;;;4.30;;
71038;SDS011;58692;43.212;27.908;2023-04-03T15:23:58;11.50;;;5.60;;
71038;SDS011;58692;43.212;27.908;2023-04-03T15:26:24;10.70;;;5.13;;
71038;SDS011;58692;43.212;27.908;2023-04-03T15:28:50;10.57;;;4.50;;
71038;SDS011;58692;43.212;27.908;2023-04-03T15:31:15;9.50;;;4.53;;
71038;SDS011;58692;43.212;27.908;2023-04-03T15:33:41;10.63;;;5.10;;
71038;SDS011;58692;43.212;27.908;2023-04-03T15:36:07;10.20;;;4.82;;
71038;SDS011;58692;43.212;27.908;2023-04-03T15:38:33;8.90;;;4.43;;
71038;SDS011;58692;43.212;27.908;2023-04-03T15:40:59;9.85;;;4.30;;
71038;SDS011;58692;43.212;27.908;2023-04-03T15:43:24;9.07;;;4.30;;
71038;SDS011;58692;43.212;27.908;2023-04-03T15:45:50;9.30;;;3.90;;
71038;SDS011;58692;43.212;27.908;2023-04-03T15:48:16;9.30;;;4.10;;
71038;SDS011;58692;43.212;27.908;2023-04-03T15:50:42;7.78;;;3.97;;
71038;SDS011;58692;43.212;27.908;2023-04-03T15:53:08;8.03;;;3.87;;
71038;SDS011;58692;43.212;27.908;2023-04-03T15:55:34;8.63;;;3.83;;
71038;SDS011;58692;43.212;27.908;2023-04-03T15:58:01;7.47;;;3.42;;
71038;SDS011;58692;43.212;27.908;2023-04-03T16:00:27;7.77;;;3.70;;
71038;SDS011;58692;43.212;27.908;2023-04-03T16:02:56;8.70;;;4.13;;
71038;SDS011;58692;43.212;27.908;2023-04-03T16:05:26;8.65;;;3.80;;
71038;SDS011;58692;43.212;27.908;2023-04-03T16:07:52;7.90;;;3.67;;
71038;SDS011;58692;43.212;27.908;2023-04-03T16:10:18;7.93;;;3.83;;
71038;SDS011;58692;43.212;27.908;2023-04-03T16:12:44;12.05;;;4.18;;